Etusivu
METAR-TAF:

METAR-TAF

Lentoasemat :

Wiesbaden, Saksa

Leveyspiiri: 50-03N, Pituuspiiri: 008-20E, korkeus merenpinnasta: 140 m

Tämänhetkinen sää

Tämä raportti tehtiin 39 minuuttia sitten, kello 18.56 UTC
Tuuli 6 kn pohjoisesta/koillisesta
Lämpötila 24°C
Kosteus 38%
Ilmanpaine 1022 hPa
Näkyvyys 10 km tai enemmän
selkeää

METAR: ETOU 231856Z AUTO 03006KT 9999 CLR 24/09 A3019 RMK AO2 SLPNO T02410085

Aika: 21:35 (19:35 UTC)

Sääennuste

Ennuste voimassa 23. päivästä klo 16 UTC - 24. päivään klo 22 UTC
Tuuli 9 kn idästä
Näkyvyys 10 km tai enemmän
selkeää
Tulossa
23. päivästä klo 16 UTC - 23. päivään klo 17 UTC
Tuuli 6 kn eri suunnista
Näkyvyys 10 km tai enemmän
selkeää
Tulossa
24. päivästä klo 10 UTC - 24. päivään klo 11 UTC
Tuuli 9 kn idästä
Näkyvyys: 2603 m
selkeää

TAF: ETOU 2316/2422 10009KT 9999 SKC QNH3019INS BECMG 2316/2317 VRB06KT 9999 SKC QNH3023INS BECMG 2410/2411 08009KT 9999 SKC QNH3025INS TX28/2313Z TN13/2405Z LAST NO AMDS AFT 2318 NEXT 2603

Säähavainnot ja -ennusteet yli 4000 lentoasemalta (METAR- ja TAF-raportit).

Käytössä olevat sääasemat on merkitty karttaan keltaisilla ja punaisilla pisteillä.

Aseta hiiri pisteen päälle nähdäksesi sääaseman nimen.

Klikkaa sitten nähdäksesi säähavainnot ja -ennusteet.

Kartan vaihtaminen: klikkaa mustalla rastilla varustettuja vihreitä pisteitä, niin voit zoomata sisään; viivalla varustettua vihreää pistettä, niin voit zoomata ulos tai vihreitä nuolia, niin pääset viereisille kartoille.


METAR-TAF: